Terminal Aerodrome Forecast
Issued by NWS

Home | Current Version | Previous Version | Text Only | Print | Product List | Glossary On
Versions: 1 2 3 4 5 6 7 8 9 10 11 12 13 14 15 16 17 18
000
FTUS46 KSGX 121100
TAFCRQ
TAF
KCRQ 121120Z 1212/1312 VRB04KT P6SM OVC011
     FM121430 VRB04KT P6SM FEW015 SCT200
     FM121900 26008KT P6SM SCT200
     FM130100 VRB04KT P6SM SCT012
     FM130300 VRB04KT P6SM OVC012=

USA.gov is the U.S. government's official web portal to all federal, state and local government web resources and services.